Time;durP1;ratioP1;P1;durP2;ratioP2;P2;SDS_P1;SDS_P2;PMS_P1;PMS_P2;Temp;Humidity;BMP_temperature;BMP_pressure;BME280_temperature;BME280_humidity;BME280_pressure;Samples;Min_cycle;Max_cycle;Signal;HPM_P1;HPM_P2
2023/02/21 02:15:40;;;;;;;17.50;7.90;;;5.20;99.90;;;4.66;100.00;98187.69;5002822;28;20137;-67
2023/02/21 02:19:04;;;;;;;18.50;8.00;;;5.20;99.90;;;4.69;100.00;98187.66;5044056;28;20128;-67
2023/02/21 02:22:28;;;;;;;14.07;7.57;;;5.20;99.90;;;4.53;100.00;98194.63;5040053;28;20047;-67
2023/02/21 02:25:13;;;;;;;13.27;7.35;;;5.20;99.90;;;4.58;100.00;98192.88;5041252;28;20255;-67
2023/02/21 02:28:00;;;;;;;14.48;7.43;;;5.00;99.90;;;4.58;100.00;98193.75;5041584;28;20049;-67
2023/02/21 02:30:44;;;;;;;17.48;8.15;;;5.00;99.90;;;4.63;100.00;98201.44;5048778;28;20523;-68
2023/02/21 02:33:53;;;;;;;14.63;8.18;;;5.00;99.90;;;4.62;100.00;98197.13;5040882;28;20396;-68
2023/02/21 02:36:29;;;;;;;13.20;7.57;;;5.00;99.90;;;4.67;100.00;98199.66;5045148;28;20049;-67
2023/02/21 02:39:25;;;;;;;17.08;8.02;;;5.00;99.90;;;4.75;100.00;98197.88;5039967;28;20053;-67
2023/02/21 02:42:21;;;;;;;15.77;7.93;;;5.00;99.90;;;4.74;100.00;98197.00;5044562;28;20136;-67
2023/02/21 02:45:05;;;;;;;16.85;7.65;;;4.90;99.90;;;4.73;100.00;98194.47;5042981;28;20049;-67
2023/02/21 02:47:37;;;;;;;18.52;8.25;;;5.00;99.90;;;4.71;100.00;98189.34;5041930;28;20041;-67
2023/02/21 02:50:07;;;;;;;11.70;7.25;;;4.90;99.90;;;4.61;100.00;98186.00;5045063;28;20051;-67
2023/02/21 02:52:35;;;;;;;15.23;8.45;;;4.90;99.90;;;4.61;100.00;98193.72;5075574;28;20421;-67
2023/02/21 02:55:31;;;;;;;15.23;8.43;;;4.90;99.90;;;4.65;100.00;98186.81;5070398;28;20635;-67
2023/02/21 02:57:59;;;;;;;15.25;8.30;;;4.80;99.90;;;4.59;100.00;98176.59;5035712;28;20055;-67
2023/02/21 03:00:27;;;;;;;17.08;9.05;;;4.80;99.90;;;4.54;100.00;98180.94;5078597;28;20055;-67
2023/02/21 03:03:36;;;;;;;15.07;8.13;;;4.80;99.90;;;4.61;100.00;98186.00;5044506;28;20641;-67
2023/02/21 03:06:34;;;;;;;14.98;8.23;;;4.80;99.90;;;4.64;100.00;98194.56;5077672;28;20145;-67
2023/02/21 03:09:14;;;;;;;19.80;9.98;;;4.80;99.90;;;4.69;100.00;98196.22;5045279;28;20072;-67
2023/02/21 03:11:59;;;;;;;21.13;9.02;;;4.80;99.90;;;4.65;100.00;98201.38;5045100;28;20454;-67
2023/02/21 03:14:36;;;;;;;17.50;8.60;;;4.80;99.90;;;4.55;100.00;98190.34;5041572;28;20065;-67
2023/02/21 03:17:09;;;;;;;19.95;9.40;;;4.70;99.90;;;4.43;100.00;98180.19;5042436;28;20493;-67
2023/02/21 03:19:40;;;;;;;17.73;8.82;;;4.70;99.90;;;4.40;100.00;98186.16;5076611;28;20508;-68
2023/02/21 03:22:12;;;;;;;17.17;9.20;;;4.70;99.90;;;4.46;100.00;98183.56;5074760;28;20051;-67
2023/02/21 03:24:42;;;;;;;13.35;9.02;;;4.70;99.90;;;4.41;100.00;98187.88;5044769;28;20049;-67
2023/02/21 03:27:11;;;;;;;19.85;10.60;;;4.70;99.90;;;4.47;100.00;98179.25;5044472;28;20041;-67
2023/02/21 03:29:39;;;;;;;20.08;10.30;;;4.70;99.90;;;4.07;100.00;98172.72;5043142;28;20128;-67
2023/02/21 03:34:52;;;;;;;21.60;9.93;;;4.50;99.90;;;4.19;100.00;98170.06;5050016;28;20044;-67
2023/02/21 03:37:37;;;;;;;19.30;9.68;;;4.50;99.90;;;3.94;100.00;98171.09;5041918;28;20686;-67
2023/02/21 03:40:27;;;;;;;21.02;11.43;;;4.40;99.90;;;3.84;100.00;98175.44;5045302;28;20140;-67
2023/02/21 03:42:59;;;;;;;22.48;12.30;;;4.40;99.90;;;3.84;100.00;98193.41;5041396;28;20603;-67
2023/02/21 03:45:26;;;;;;;14.15;8.90;;;4.40;99.90;;;4.04;100.00;98190.75;5076918;28;20071;-67
2023/02/21 03:47:53;;;;;;;14.65;8.82;;;4.30;99.90;;;4.10;100.00;98184.69;5044331;28;20037;-67
2023/02/21 03:50:20;;;;;;;15.75;9.25;;;4.30;99.90;;;4.07;100.00;98179.59;5042706;28;20056;-68
2023/02/21 03:52:47;;;;;;;17.42;10.20;;;4.30;99.90;;;4.16;100.00;98195.78;5074822;28;20060;-67
2023/02/21 03:55:15;;;;;;;20.27;9.98;;;4.30;99.90;;;4.17;100.00;98199.19;5046352;28;20049;-67
2023/02/21 03:57:45;;;;;;;17.58;10.70;;;4.30;99.90;;;4.20;100.00;98201.75;5042941;28;20056;-67
2023/02/21 04:00:13;;;;;;;19.70;10.68;;;4.30;99.90;;;4.18;100.00;98204.34;5045413;28;20127;-67
2023/02/21 04:02:41;;;;;;;18.52;10.77;;;4.30;99.90;;;4.14;100.00;98204.38;5042240;28;20562;-68
2023/02/21 04:05:08;;;;;;;19.52;10.18;;;4.30;99.90;;;4.09;100.00;98196.69;5044704;28;20124;-67
2023/02/21 04:07:35;;;;;;;17.40;9.77;;;4.30;99.90;;;4.10;100.00;98195.81;5044747;28;20040;-67
2023/02/21 04:10:02;;;;;;;17.17;10.55;;;4.30;99.90;;;4.11;100.00;98196.69;5044981;28;20057;-67
2023/02/21 04:12:30;;;;;;;22.20;11.48;;;4.30;99.90;;;4.08;100.00;98192.44;5073839;28;20049;-67
2023/02/21 04:14:57;;;;;;;18.70;12.20;;;4.30;99.90;;;3.84;100.00;98190.84;5044372;28;20041;-68
2023/02/21 04:17:25;;;;;;;17.30;10.65;;;4.30;99.90;;;3.85;100.00;98196.84;5041993;28;20088;-67
2023/02/21 04:19:52;;;;;;;20.38;11.43;;;4.20;99.90;;;3.79;100.00;98190.03;5041494;28;20059;-67
2023/02/21 04:22:19;;;;;;;25.88;12.80;;;4.20;99.90;;;3.78;100.00;98189.16;5044606;28;20063;-67
2023/02/21 04:24:47;;;;;;;20.80;12.55;;;4.10;99.90;;;3.83;100.00;98199.44;5040312;28;20494;-67
2023/02/21 04:27:14;;;;;;;21.95;11.30;;;4.10;99.90;;;3.84;100.00;98207.97;5045256;28;20118;-67
2023/02/21 04:29:41;;;;;;;25.92;13.05;;;4.10;99.90;;;3.72;100.00;98206.34;5058933;28;20068;-67
2023/02/21 04:32:10;;;;;;;14.80;10.45;;;4.10;99.90;;;3.82;100.00;98209.69;5043795;28;20045;-67
2023/02/21 04:34:37;;;;;;;18.25;11.25;;;4.00;99.90;;;3.86;100.00;98203.69;5042962;28;20104;-67
2023/02/21 04:37:04;;;;;;;21.13;11.65;;;4.00;99.90;;;3.62;100.00;98207.22;5043943;28;20658;-67
2023/02/21 04:39:31;;;;;;;21.98;11.00;;;4.10;99.90;;;3.80;100.00;98207.13;5043697;28;20483;-67
2023/02/21 04:41:58;;;;;;;15.80;10.20;;;4.00;99.90;;;3.82;100.00;98204.56;5045849;28;20044;-67
2023/02/21 04:44:25;;;;;;;20.50;12.68;;;4.00;99.90;;;3.79;100.00;98202.88;5041422;28;20076;-67
2023/02/21 04:46:52;;;;;;;18.48;11.10;;;4.00;99.90;;;3.81;100.00;98197.72;5042235;28;20052;-67
2023/02/21 04:49:19;;;;;;;22.80;12.45;;;4.00;99.90;;;3.75;100.00;98193.47;5041845;28;20055;-67
2023/02/21 04:51:46;;;;;;;20.42;12.05;;;4.00;99.90;;;3.77;100.00;98197.75;5028035;28;20080;-67
2023/02/21 04:54:13;;;;;;;22.77;11.77;;;4.00;99.90;;;3.75;100.00;98201.19;5045203;28;20134;-68
2023/02/21 04:56:40;;;;;;;18.17;11.52;;;3.90;99.90;;;3.74;100.00;98196.88;5043739;28;20079;-67
2023/02/21 04:59:07;;;;;;;20.48;11.35;;;4.00;99.90;;;3.76;100.00;98195.16;5044152;28;20065;-67
2023/02/21 05:01:34;;;;;;;22.30;11.98;;;4.00;99.90;;;3.69;100.00;98199.47;5044132;28;20075;-67
2023/02/21 05:04:01;;;;;;;22.67;12.48;;;4.00;99.90;;;3.69;100.00;98196.91;5042680;28;20049;-67
2023/02/21 05:06:30;;;;;;;20.08;11.82;;;4.00;99.90;;;3.71;100.00;98190.06;5046123;28;20715;-68
2023/02/21 05:08:58;;;;;;;17.77;11.77;;;4.00;99.90;;;3.77;100.00;98192.59;5044812;28;20115;-67
2023/02/21 05:11:26;;;;;;;25.75;12.32;;;4.00;99.90;;;3.75;100.00;98188.34;5045008;28;20057;-67
2023/02/21 05:13:53;;;;;;;27.08;13.73;;;4.00;99.90;;;3.76;100.00;98195.16;5047981;28;20067;-67
2023/02/21 05:16:20;;;;;;;31.55;19.13;;;4.00;99.90;;;3.42;100.00;98204.75;5047431;28;20164;-67
2023/02/21 05:18:51;;;;;;;37.88;20.17;;;4.00;99.90;;;3.24;100.00;98209.09;5047020;28;20144;-67
2023/02/21 05:21:19;;;;;;;40.80;20.15;;;4.00;99.90;;;3.05;100.00;98199.75;5048195;28;20094;-68
2023/02/21 05:23:55;;;;;;;40.67;21.83;;;3.80;99.90;;;2.77;100.00;98204.94;5046771;28;20509;-67
2023/02/21 05:26:26;;;;;;;36.53;20.73;;;3.70;99.90;;;2.76;100.00;98204.91;5045671;28;20522;-67
2023/02/21 05:28:56;;;;;;;31.23;17.80;;;3.60;99.90;;;2.74;100.00;98202.38;5047334;28;20052;-67
2023/02/21 05:31:23;;;;;;;24.90;13.38;;;3.40;99.90;;;2.98;100.00;98203.19;5047892;28;20052;-67
2023/02/21 05:33:50;;;;;;;26.65;14.43;;;3.40;99.90;;;2.91;100.00;98199.78;5045390;28;20074;-67
2023/02/21 05:36:18;;;;;;;22.13;13.50;;;3.30;99.90;;;2.88;100.00;98202.34;5062613;28;20056;-67
2023/02/21 05:38:49;;;;;;;27.38;15.80;;;3.30;99.90;;;2.88;100.00;98198.06;5043539;28;20447;-67
2023/02/21 05:41:20;;;;;;;26.80;14.07;;;3.30;99.90;;;2.79;100.00;98187.84;5045202;28;20057;-67
2023/02/21 05:43:49;;;;;;;21.58;14.52;;;3.30;99.90;;;2.40;100.00;98187.03;5077933;28;20047;-67
2023/02/21 05:46:31;;;;;;;23.35;13.95;;;3.20;99.90;;;2.66;100.00;98189.56;5046407;28;20142;-67
2023/02/21 05:49:02;;;;;;;23.48;13.98;;;3.10;99.90;;;3.02;100.00;98182.66;5044302;28;20045;-67
2023/02/21 05:51:42;;;;;;;27.45;13.63;;;3.20;99.90;;;3.24;100.00;98193.72;5046601;28;20136;-68
2023/02/21 05:54:16;;;;;;;26.42;15.20;;;3.40;99.90;;;3.26;100.00;98193.69;5046673;28;20536;-67
2023/02/21 05:56:45;;;;;;;28.15;15.82;;;3.60;99.90;;;3.33;100.00;98201.38;5042724;28;20135;-68
2023/02/21 05:59:15;;;;;;;27.70;14.73;;;3.60;99.90;;;3.43;100.00;98201.34;5047320;28;20055;-67
2023/02/21 06:01:42;;;;;;;21.75;13.20;;;3.70;99.90;;;3.44;100.00;98195.31;5048041;28;20041;-67
2023/02/21 06:04:09;;;;;;;23.50;13.27;;;3.70;99.90;;;3.46;100.00;98196.19;5045608;28;20041;-67
2023/02/21 06:06:37;;;;;;;26.27;15.35;;;3.70;99.90;;;3.66;100.00;98194.38;5046244;28;20055;-67
2023/02/21 06:09:05;;;;;;;23.27;14.07;;;3.70;99.90;;;3.62;100.00;98189.25;5045895;28;20349;-67
2023/02/21 06:11:36;;;;;;;24.30;14.32;;;3.80;99.90;;;3.60;100.00;98183.28;5041980;28;20053;-67
2023/02/21 06:14:16;;;;;;;22.60;13.43;;;3.80;99.90;;;3.67;100.00;98192.66;5044545;28;20156;-67
2023/02/21 06:16:44;;;;;;;24.48;14.27;;;3.80;99.90;;;3.64;100.00;98179.84;5075862;28;20056;-68
2023/02/21 06:19:13;;;;;;;23.60;15.15;;;3.80;99.90;;;3.74;100.00;98182.34;5045604;28;20049;-67
2023/02/21 06:21:40;;;;;;;26.77;14.30;;;3.80;99.90;;;3.58;100.00;98183.31;5047216;28;20122;-67
2023/02/21 06:24:09;;;;;;;29.15;15.20;;;3.80;99.90;;;3.60;100.00;98173.84;5047108;28;20048;-67
2023/02/21 06:26:37;;;;;;;24.75;15.77;;;3.80;99.90;;;3.54;100.00;98172.19;5047128;28;20502;-67
2023/02/21 06:29:04;;;;;;;28.13;14.88;;;3.80;99.90;;;3.58;100.00;98178.19;5046986;28;20050;-67
2023/02/21 06:31:32;;;;;;;23.65;14.85;;;3.80;99.90;;;3.36;100.00;98182.53;5046526;28;20088;-67
2023/02/21 06:33:59;;;;;;;33.70;20.13;;;3.80;99.90;;;3.32;100.00;98184.25;5057715;28;20052;-66
2023/02/21 06:36:28;;;;;;;38.28;22.58;;;3.70;99.90;;;3.10;100.00;98185.19;5044144;28;20163;-66
2023/02/21 06:38:56;;;;;;;38.65;23.13;;;3.70;99.90;;;2.76;100.00;98181.84;5044941;28;20049;-65
2023/02/21 06:41:28;;;;;;;39.33;22.55;;;3.60;99.90;;;2.56;100.00;98179.34;5047157;28;20071;-65
2023/02/21 06:43:57;;;;;;;39.63;20.88;;;3.50;99.90;;;2.32;100.00;98187.88;5045195;28;20178;-66
2023/02/21 06:46:28;;;;;;;35.60;21.13;;;3.40;99.90;;;2.56;100.00;98187.88;5048177;28;20056;-65
2023/02/21 06:48:56;;;;;;;30.35;17.30;;;3.30;99.90;;;2.50;100.00;98185.31;5041763;28;20056;-65
2023/02/21 06:51:28;;;;;;;32.15;18.55;;;3.20;99.90;;;2.37;100.00;98191.28;5057801;28;20128;-68
2023/02/21 06:53:57;;;;;;;34.40;19.00;;;3.20;99.90;;;2.14;100.00;98187.00;5030040;28;20638;-66
2023/02/21 06:56:25;;;;;;;35.45;21.67;;;3.10;99.90;;;1.96;100.00;98190.41;5047954;28;20437;-66
2023/02/21 06:58:52;;;;;;;46.70;23.33;;;3.10;99.90;;;2.01;100.00;98195.53;5045658;28;20114;-67
2023/02/21 07:01:20;;;;;;;52.45;30.45;;;3.00;99.90;;;2.00;100.00;98197.22;5039098;28;20128;-66
2023/02/21 07:03:47;;;;;;;51.35;28.13;;;3.00;99.90;;;1.98;100.00;98198.09;5046201;28;20134;-66
2023/02/21 07:06:14;;;;;;;48.03;29.67;;;3.00;99.90;;;2.02;100.00;98192.13;5043180;28;20116;-66
2023/02/21 07:08:41;;;;;;;46.70;26.98;;;3.00;99.90;;;1.95;100.00;98193.81;5073815;28;20106;-66
2023/02/21 07:11:09;;;;;;;35.10;21.65;;;2.90;99.90;;;2.03;100.00;98193.81;5043184;28;20042;-66
2023/02/21 07:13:36;;;;;;;32.55;22.00;;;2.90;99.90;;;1.95;100.00;98192.97;5044063;28;20049;-67
2023/02/21 07:16:04;;;;;;;32.53;20.83;;;2.90;99.90;;;2.00;100.00;98196.38;5040874;28;20521;-68
2023/02/21 07:18:34;;;;;;;32.85;20.42;;;2.90;99.90;;;1.93;100.00;98202.34;5042960;28;20444;-67
2023/02/21 07:21:01;;;;;;;25.13;15.57;;;2.90;99.90;;;1.96;100.00;98205.78;5045652;28;20135;-67
2023/02/21 07:23:28;;;;;;;29.15;18.45;;;2.90;99.90;;;1.89;100.00;98198.91;5045314;28;20053;-66
2023/02/21 07:25:55;;;;;;;29.98;18.65;;;2.90;99.90;;;2.06;100.00;98198.97;5045221;28;20145;-66
2023/02/21 07:28:22;;;;;;;33.25;19.55;;;2.90;99.90;;;2.32;100.00;98203.25;5039574;28;20049;-66
2023/02/21 07:30:49;;;;;;;34.50;19.85;;;2.90;99.90;;;2.13;100.00;98195.53;5041736;28;20045;-65
2023/02/21 07:33:16;;;;;;;28.20;17.63;;;3.00;99.90;;;2.37;100.00;98197.25;5041082;28;20053;-66
2023/02/21 07:35:45;;;;;;;34.78;20.48;;;3.00;99.90;;;2.54;100.00;98199.81;5040480;28;20141;-66
2023/02/21 07:38:29;;;;;;;38.97;21.50;;;3.20;99.90;;;2.97;100.00;98204.06;5028924;28;20155;-66
2023/02/21 07:41:02;;;;;;;28.65;18.95;;;3.30;99.90;;;3.31;100.00;98200.53;5045241;28;20049;-66
2023/02/21 07:43:30;;;;;;;27.20;18.20;;;3.60;99.90;;;3.44;100.00;98201.31;5045914;28;20055;-67
2023/02/21 07:45:57;;;;;;;28.00;16.23;;;3.70;99.90;;;3.55;100.00;98196.13;5043097;28;20042;-66
2023/02/21 07:48:24;;;;;;;35.50;20.80;;;3.90;99.90;;;3.75;100.00;98193.47;5042732;28;20053;-67
2023/02/21 07:50:51;;;;;;;33.63;18.55;;;4.00;99.90;;;3.82;100.00;98192.56;5043015;28;20182;-66
2023/02/21 07:53:19;;;;;;;32.63;19.70;;;4.10;99.90;;;3.95;100.00;98188.22;5045309;28;20131;-66
2023/02/21 07:55:46;;;;;;;30.38;18.50;;;4.30;99.90;;;4.08;100.00;98181.28;5044758;28;20492;-66
2023/02/21 07:58:13;;;;;;;27.80;18.52;;;4.40;99.90;;;4.18;100.00;98183.78;5043817;28;20540;-66
2023/02/21 08:00:40;;;;;;;28.08;17.08;;;4.50;99.90;;;4.37;100.00;98178.50;5042096;28;20703;-66
2023/02/21 08:03:08;;;;;;;32.72;17.52;;;;;;;4.64;100.00;98177.41;5042589;28;20045;-66
2023/02/21 08:05:35;;;;;;;30.33;18.80;;;5.40;99.90;;;5.63;100.00;98179.72;5039792;28;20401;-66
2023/02/21 08:08:02;;;;;;;25.77;17.73;;;5.40;99.90;;;6.62;100.00;98179.97;5044915;28;20056;-66
2023/02/21 08:10:29;;;;;;;26.70;18.33;;;6.10;99.90;;;7.28;100.00;98165.03;5028598;28;20789;-67
2023/02/21 08:12:56;;;;;;;25.35;18.27;;;;;;;7.57;100.00;98137.72;5041964;28;20044;-67
2023/02/21 08:15:23;;;;;;;21.98;15.60;;;7.70;99.90;;;8.01;100.00;98117.78;5044407;28;20053;-67
2023/02/21 08:17:50;;;;;;;25.77;14.88;;;8.00;99.90;;;8.91;100.00;98088.78;5043355;28;20141;-67
2023/02/21 08:20:18;;;;;;;27.00;18.15;;;;;;;8.65;100.00;98061.88;5055146;28;20590;-67
2023/02/21 08:22:45;;;;;;;25.17;13.80;;;8.90;99.90;;;8.70;100.00;98043.63;5046614;28;20060;-67
2023/02/21 08:25:15;;;;;;;19.30;12.43;;;9.10;99.90;;;8.53;100.00;98024.25;5041420;28;20143;-67
2023/02/21 08:27:43;;;;;;;19.63;13.18;;;9.20;99.90;;;8.71;100.00;98017.72;5035271;28;20053;-67
2023/02/21 08:30:13;;;;;;;26.48;14.13;;;9.00;99.90;;;7.17;100.00;98017.22;5035042;28;20121;-68
2023/02/21 08:32:40;;;;;;;22.80;14.85;;;9.00;99.90;;;7.18;100.00;98024.06;5051169;28;20057;-67
2023/02/21 08:35:13;;;;;;;21.67;14.45;;;9.00;99.90;;;7.40;100.00;98025.28;5037095;28;20125;-67
2023/02/21 08:37:46;;;;;;;20.17;13.32;;;9.20;99.90;;;7.90;100.00;98028.41;5032019;28;20051;-67
2023/02/21 08:40:15;;;;;;;21.92;13.93;;;9.20;99.90;;;7.80;100.00;98015.75;5038838;28;20160;-67
2023/02/21 08:42:42;;;;;;;23.08;14.32;;;9.20;99.90;;;7.27;100.00;98022.13;5052115;28;20139;-67
2023/02/21 08:45:16;;;;;;;23.27;14.75;;;9.10;99.90;;;7.01;100.00;98027.88;5015802;28;20809;-67
2023/02/21 08:47:44;;;;;;;23.50;14.15;;;8.90;99.90;;;6.87;100.00;98029.91;5039420;28;20050;-67
2023/02/21 08:50:12;;;;;;;19.92;14.05;;;8.70;99.90;;;7.09;100.00;98030.28;5041652;28;20045;-66
2023/02/21 08:52:39;;;;;;;22.77;14.32;;;8.40;99.90;;;6.64;100.00;98027.78;5043540;28;20049;-67
2023/02/21 08:55:07;;;;;;;28.30;16.83;;;8.30;99.90;;;6.74;100.00;98033.59;5043253;28;20508;-66
2023/02/21 08:57:34;;;;;;;26.30;15.82;;;8.10;99.90;;;6.67;100.00;98040.59;5040850;28;20401;-67
2023/02/21 09:00:04;;;;;;;28.77;15.93;;;8.00;99.90;;;6.70;100.00;98041.41;5041090;28;20087;-67
2023/02/21 09:02:32;;;;;;;28.92;17.02;;;7.90;99.90;;;6.83;100.00;98033.41;5041789;28;20137;-66
2023/02/21 09:04:58;;;;;;;27.30;15.38;;;7.70;99.90;;;6.65;100.00;98038.03;5041654;28;20053;-66
2023/02/21 09:07:27;;;;;;;23.38;15.23;;;7.60;99.90;;;6.67;100.00;98045.75;5044305;28;20079;-66
2023/02/21 09:09:54;;;;;;;28.80;16.90;;;7.70;99.90;;;6.57;100.00;98047.69;5042064;28;20057;-66
2023/02/21 09:12:21;;;;;;;29.48;19.27;;;7.70;99.90;;;6.68;100.00;98055.19;5043563;28;20418;-66
2023/02/21 09:14:48;;;;;;;27.70;19.13;;;7.70;99.90;;;6.70;100.00;98050.84;5042328;28;20132;-66
2023/02/21 09:17:15;;;;;;;26.25;17.17;;;7.80;99.90;;;6.76;100.00;98055.06;5043360;28;20048;-67
2023/02/21 09:19:43;;;;;;;29.20;18.13;;;7.80;99.90;;;6.78;100.00;98046.41;5040522;28;20048;-66
2023/02/21 09:22:10;;;;;;;30.10;18.83;;;7.80;99.90;;;6.93;100.00;98045.22;5039275;28;20052;-67
2023/02/21 09:24:37;;;;;;;27.25;18.45;;;7.80;99.90;;;6.98;100.00;98047.72;5043847;28;20053;-67
2023/02/21 09:27:05;;;;;;;27.45;18.42;;;7.80;99.90;;;6.98;100.00;98042.56;5043007;28;20063;-67
2023/02/21 09:29:35;;;;;;;25.50;17.48;;;7.80;99.90;;;7.05;100.00;98046.72;5042852;28;20055;-66
2023/02/21 09:32:12;;;;;;;26.88;17.33;;;7.90;99.90;;;7.12;100.00;98043.13;5042374;28;20057;-67
2023/02/21 09:34:40;;;;;;;28.33;17.45;;;7.90;99.90;;;7.11;100.00;98044.00;5042948;28;20063;-66
2023/02/21 09:37:08;;;;;;;31.67;20.02;;;7.90;99.90;;;7.31;100.00;98043.56;5040166;28;20652;-67
2023/02/21 09:39:38;;;;;;;30.10;19.55;;;8.00;99.90;;;7.44;100.00;98041.59;5042375;28;20057;-66
2023/02/21 09:42:05;;;;;;;28.00;18.23;;;8.10;99.90;;;7.62;100.00;98040.28;5043853;28;20136;-66
2023/02/21 09:44:33;;;;;;;28.88;19.02;;;8.10;99.90;;;7.40;100.00;98039.94;5043156;28;20142;-66
2023/02/21 09:47:06;;;;;;;33.70;18.50;;;8.10;99.90;;;7.43;100.00;98038.13;5043187;28;20044;-66
2023/02/21 09:49:38;;;;;;;27.80;17.50;;;8.20;99.90;;;7.44;100.00;98028.66;5055139;28;20049;-67
2023/02/21 09:52:36;;;;;;;28.60;18.30;;;8.30;99.90;;;7.46;100.00;98022.59;5044165;28;20080;-66
2023/02/21 09:55:25;;;;;;;27.52;17.85;;;8.30;99.90;;;7.71;100.00;98024.59;5040636;28;20045;-66
2023/02/21 09:57:53;;;;;;;29.20;17.73;;;8.40;99.90;;;7.81;100.00;98013.13;5044852;28;20203;-66
2023/02/21 10:00:41;;;;;;;26.15;17.65;;;8.40;99.90;;;8.16;100.00;98012.25;5043941;28;20045;-66
2023/02/21 10:03:44;;;;;;;28.48;18.42;;;8.50;99.90;;;8.27;100.00;98011.97;5044739;28;20079;-66
2023/02/21 10:06:46;;;;;;;25.23;16.63;;;8.70;99.90;;;8.33;100.00;98001.47;5043894;28;20080;-66
2023/02/21 10:09:50;;;;;;;23.13;16.13;;;8.80;99.90;;;8.39;100.00;97997.84;5037233;28;20512;-66
2023/02/21 10:12:55;;;;;;;22.08;15.18;;;8.80;99.90;;;8.23;100.00;98000.00;5076480;28;20052;-66
2023/02/21 10:16:11;;;;;;;29.33;16.88;;;9.00;99.90;;;8.47;100.00;97993.34;5047554;28;20053;-66
2023/02/21 10:19:19;;;;;;;26.00;15.85;;;9.10;99.90;;;8.64;100.00;97992.03;5041595;28;20056;-67
2023/02/21 10:21:49;;;;;;;27.67;15.65;;;9.20;99.90;;;8.55;100.00;97988.84;5041411;28;20045;-66
2023/02/21 10:24:23;;;;;;;24.17;15.40;;;9.20;99.90;;;8.74;100.00;97989.16;5043917;28;20053;-66
2023/02/21 10:27:01;;;;;;;28.08;16.30;;;9.30;99.90;;;8.72;100.00;97982.31;5073357;28;20049;-66
2023/02/21 10:29:55;;;;;;;20.80;13.48;;;9.30;99.90;;;8.86;100.00;97987.09;5055245;28;20531;-66
2023/02/21 10:32:24;;;;;;;19.13;12.75;;;9.40;99.90;;;9.07;100.00;97983.03;5063850;28;20049;-66
2023/02/21 10:34:53;;;;;;;18.55;12.20;;;9.50;99.90;;;9.39;100.00;97982.88;5044578;28;20481;-66
2023/02/21 10:37:42;;;;;;;24.55;12.95;;;9.70;99.90;;;9.48;100.00;97983.50;5042411;28;20041;-65
2023/02/21 10:40:34;;;;;;;24.55;14.02;;;9.90;99.90;;;9.65;100.00;97970.84;5048657;28;20040;-65
2023/02/21 10:43:20;;;;;;;24.20;14.93;;;10.10;99.90;;;9.80;100.00;97975.50;5046159;28;20487;-65
2023/02/21 10:46:26;;;;;;;36.63;22.20;;;10.10;99.90;;;9.88;100.00;97966.66;5044821;28;20202;-66
2023/02/21 10:49:03;;;;;;;31.45;19.98;;;10.30;99.90;;;9.90;100.00;97967.44;5041462;28;20049;-66
2023/02/21 10:51:33;;;;;;;31.55;17.65;;;10.50;99.90;;;9.94;100.00;97959.50;5070870;28;20045;-66
2023/02/21 10:54:22;;;;;;;25.90;15.80;;;10.50;99.90;;;10.07;100.00;97956.50;5043661;28;20136;-66
2023/02/21 10:56:52;;;;;;;20.20;13.15;;;10.60;99.90;;;10.19;100.00;97946.53;5040508;28;20052;-66
2023/02/21 10:59:33;;;;;;;19.58;12.80;;;10.60;99.90;;;10.37;100.00;97942.47;5058147;28;20086;-66
2023/02/21 11:02:32;;;;;;;20.30;13.10;;;10.70;99.90;;;10.45;100.00;97942.22;5046305;28;20122;-67
2023/02/21 11:05:21;;;;;;;17.20;11.90;;;10.80;99.90;;;10.50;100.00;97937.69;5045654;28;20057;-66
2023/02/21 11:08:08;;;;;;;19.23;12.57;;;10.90;99.90;;;10.55;100.00;97940.13;5074227;28;20072;-67
2023/02/21 11:10:43;;;;;;;18.05;11.00;;;11.00;99.90;;;10.56;100.00;97929.69;5042637;28;20519;-67
2023/02/21 11:13:16;;;;;;;16.13;10.07;;;11.00;99.90;;;10.75;100.00;97921.22;5058841;28;20052;-66
2023/02/21 11:15:44;;;;;;;15.32;9.52;;;11.10;99.90;;;10.78;100.00;97919.31;5042722;28;20071;-66
2023/02/21 11:18:22;;;;;;;14.27;8.35;;;11.20;99.90;;;10.86;100.00;97912.09;5048093;28;20064;-67
2023/02/21 11:20:51;;;;;;;13.75;8.02;;;11.30;99.90;;;10.88;100.00;97902.50;5045488;28;20049;-66
2023/02/21 11:23:30;;;;;;;14.82;8.00;;;11.40;99.90;;;10.93;100.00;97904.09;5045313;28;20076;-66
2023/02/21 11:26:08;;;;;;;12.90;7.47;;;11.50;99.90;;;11.10;100.00;97897.28;5039627;28;21778;-67
2023/02/21 11:28:44;;;;;;;12.02;6.78;;;11.60;99.90;;;11.14;100.00;97885.03;5043741;28;20067;-67
2023/02/21 11:31:28;;;;;;;12.48;6.93;;;11.60;99.90;;;11.35;100.00;97880.72;5038356;28;20507;-66
2023/02/21 11:34:05;;;;;;;16.20;9.70;;;11.60;99.90;;;11.40;100.00;97883.97;5073518;28;20055;-67
2023/02/21 11:36:36;;;;;;;17.50;9.82;;;11.70;99.90;;;11.42;100.00;97869.16;5041260;28;20049;-67
2023/02/21 11:39:28;;;;;;;19.40;10.90;;;11.80;99.90;;;11.42;100.00;97870.94;5040913;28;20869;-66
2023/02/21 11:41:59;;;;;;;11.80;6.40;;;12.00;99.90;;;11.63;100.00;97861.38;5042645;28;20075;-66
2023/02/21 11:44:34;;;;;;;12.07;6.65;;;12.00;99.90;;;11.64;100.00;97865.69;5047457;28;20068;-66
2023/02/21 11:47:36;;;;;;;12.13;7.38;;;12.10;99.90;;;11.87;100.00;97856.91;5044894;28;20521;-66
2023/02/21 11:50:07;;;;;;;13.90;8.65;;;12.20;99.90;;;11.70;100.00;97858.47;5042386;28;20725;-67
2023/02/21 11:52:55;;;;;;;12.70;6.70;;;12.30;99.90;;;11.90;100.00;97862.00;5041502;28;20088;-66
2023/02/21 11:55:24;;;;;;;14.77;8.20;;;12.40;99.90;;;11.88;100.00;97861.22;5073453;28;20980;-67
2023/02/21 11:58:36;;;;;;;11.43;5.95;;;12.50;99.90;;;11.98;100.00;97853.88;5044126;28;20057;-67
2023/02/21 12:01:11;;;;;;;9.82;6.35;;;12.60;99.90;;;12.16;100.00;97860.88;5046294;28;20694;-66
2023/02/21 12:04:03;;;;;;;11.57;5.60;;;12.60;99.90;;;12.33;100.00;97849.69;5044365;28;20051;-67
2023/02/21 12:07:12;;;;;;;11.65;7.03;;;12.70;99.90;;;12.28;100.00;97852.50;5073082;28;20053;-66
2023/02/21 12:09:51;;;;;;;10.98;6.25;;;12.80;99.90;;;12.27;100.00;97847.34;5031034;28;20164;-66
2023/02/21 12:12:53;;;;;;;7.32;4.40;;;12.90;99.90;;;12.53;100.00;97847.00;5044748;28;20053;-66
2023/02/21 12:15:29;;;;;;;9.88;6.45;;;12.90;99.90;;;12.60;100.00;97854.56;5041505;28;20568;-66
2023/02/21 12:18:32;;;;;;;9.43;5.70;;;13.00;99.90;;;12.81;100.00;97839.69;5041822;28;20805;-67
2023/02/21 12:21:51;;;;;;;6.65;3.45;;;13.10;99.90;;;12.44;100.00;97834.44;5037228;28;20080;-67
2023/02/21 12:24:52;;;;;;;7.28;3.75;;;13.20;99.90;;;12.77;100.00;97831.16;5039466;28;20059;-67
2023/02/21 12:27:47;;;;;;;7.75;4.25;;;13.20;99.90;;;12.76;100.00;97827.72;5076681;28;20044;-67
2023/02/21 12:30:42;;;;;;;14.45;6.35;;;13.30;99.90;;;12.73;100.00;97825.25;5071845;28;20044;-66
2023/02/21 12:33:42;;;;;;;20.95;9.10;;;13.30;99.90;;;12.86;100.00;97822.06;5046844;28;20044;-66
2023/02/21 12:36:37;;;;;;;17.58;6.68;;;13.40;99.90;;;13.08;100.00;97819.28;5039605;28;20048;-67
2023/02/21 12:39:17;;;;;;;6.25;3.58;;;13.50;99.90;;;12.89;100.00;97819.31;5039306;28;20592;-67
2023/02/21 12:42:01;;;;;;;7.45;3.30;;;13.60;99.90;;;12.96;100.00;97820.72;5039778;28;20147;-67
2023/02/21 12:44:56;;;;;;;6.40;3.65;;;13.60;99.90;;;13.48;100.00;97806.88;5042775;28;20504;-66
2023/02/21 12:47:33;;;;;;;6.28;2.63;;;13.80;99.90;;;13.47;100.00;97795.59;5058315;28;20059;-66
2023/02/21 12:50:32;;;;;;;4.10;2.10;;;13.90;99.90;;;13.49;100.00;97798.97;5043369;28;20052;-66
2023/02/21 12:53:15;;;;;;;8.48;5.10;;;14.00;99.90;;;13.51;100.00;97799.75;5057659;28;20048;-66
2023/02/21 12:55:50;;;;;;;10.90;4.45;;;14.10;99.90;;;13.70;100.00;97790.97;5042803;28;20529;-66
2023/02/21 12:58:34;;;;;;;14.40;6.97;;;14.10;99.90;;;13.68;100.00;97785.00;5043725;28;20158;-66
2023/02/21 13:01:09;;;;;;;6.55;3.20;;;14.20;99.90;;;13.95;100.00;97778.34;5036047;28;20492;-67
2023/02/21 13:04:26;;;;;;;5.95;2.33;;;14.30;99.90;;;13.97;100.00;97776.47;5042363;28;20515;-66